Pagrindinis puslapis
METAR-TAF:

METAR-TAF

Oro uostai :

Padangas, Indonezija

platuma: 00-47-12S, ilguma: 100-16-50E, Aukštis: 5 m

METAR: trūkstamas

Laikas: 02:46 (19:46 UTC)

Prognozė

Ataskaita buvo paskelbta 2 valandos ir 46 minutes, ne 17:00 UTC
Prognozė galioja nuo 25 metu 18 UTC su 26 metu 18 UTC
Vėjas 3 kt iš Šiaurės/Šiaurės Rytų
Matomumas: 8000 m
Su prošvaistėmis ne aukštis 1800 ft
Laikinai
nuo 25 metu 18 UTC su 25 metu 21 UTC
Matomumas: 2000 m
Su prošvaistėmis ne aukštis 1600 ft
lietus
Tapsmas
nuo 26 metu 01 UTC su 26 metu 03 UTC
Vėjas 5 kt iš Vakarų/Pietvakarių
Matomumas 10 km arba daugiau

TAF: WIEE 251700Z 2518/2618 02003KT 8000 BKN018 TEMPO 2518/2521 2000 RA BKN016 BECMG 2601/2603 25005KT 9999 SCT18

Orai ataskaitas ir orų prognozės (METAR, TAF).

turimą stotys yra geltonos ir raudonos taškus žemėlapyje.

Perkelti pele per norėdami pamatyti stoties vardą.

Tada spustelėkite, norėdami matyti oro stebėjimo ir prognozės.

Norėdami pakeisti žemėlapį: spustelėkite ant žalios mygtukų su juodo kryžiaus žemyn,; žalią mygtuką su brūkšneliu, jei norite nutolinti; arba žalių rodyklių gretimoms žemėlapius.


METAR-TAF: